Acebal, Argentina
Current Conditions -  °F | °C
As of 10:00 AM on Tuesday 21 Oct 2014 (Local Time) from SAAR Reporting Station
Clear Clear  
Wind Chill: 77°   Ceiling: Unl
Heat Index: 78°   Visibility: 6mi
Dew Point: 48°   Wind: 16mph
Humidity: 36%   Direction: 360°N
Pressure: 30.09"   Gusts: NA
Location:  33.27°S, 60.83°W
Report Text: SAAR 211300Z 36014KT CAVOK 25/09 Q1019
Loading
Personal Weather Stations






























Interactive Weather Map New forecast layout! Learn more

10-Day Weather Forecast

Advertisements
Track Severe Weather on mobile